sensor_id;sensor_type;location;lat;lon;timestamp;P1;durP1;ratioP1;P2;durP2;ratioP2
3733;SDS011;1882;52.256;8.874;2023-11-19T00:00:53;3.50;;;3.20;;
3733;SDS011;1882;52.256;8.874;2023-11-19T00:03:19;3.90;;;3.00;;
3733;SDS011;1882;52.256;8.874;2023-11-19T00:05:46;3.50;;;3.20;;
3733;SDS011;1882;52.256;8.874;2023-11-19T00:08:14;4.40;;;3.10;;
3733;SDS011;1882;52.256;8.874;2023-11-19T00:10:41;3.53;;;3.23;;
3733;SDS011;1882;52.256;8.874;2023-11-19T00:13:10;3.20;;;2.90;;
3733;SDS011;1882;52.256;8.874;2023-11-19T00:15:37;3.57;;;3.27;;
3733;SDS011;1882;52.256;8.874;2023-11-19T00:18:07;3.73;;;3.30;;
3733;SDS011;1882;52.256;8.874;2023-11-19T00:20:33;3.70;;;3.40;;
3733;SDS011;1882;52.256;8.874;2023-11-19T00:23:07;3.70;;;3.40;;
3733;SDS011;1882;52.256;8.874;2023-11-19T00:25:34;4.10;;;3.70;;
3733;SDS011;1882;52.256;8.874;2023-11-19T00:28:19;5.13;;;4.13;;
3733;SDS011;1882;52.256;8.874;2023-11-19T00:30:55;4.10;;;3.70;;
3733;SDS011;1882;52.256;8.874;2023-11-19T00:33:22;4.57;;;4.17;;
3733;SDS011;1882;52.256;8.874;2023-11-19T00:35:49;5.10;;;3.80;;
3733;SDS011;1882;52.256;8.874;2023-11-19T00:38:15;3.90;;;3.60;;
3733;SDS011;1882;52.256;8.874;2023-11-19T00:40:42;3.97;;;3.57;;
3733;SDS011;1882;52.256;8.874;2023-11-19T00:43:13;3.53;;;3.23;;
3733;SDS011;1882;52.256;8.874;2023-11-19T00:45:42;3.90;;;3.60;;
3733;SDS011;1882;52.256;8.874;2023-11-19T00:48:09;4.13;;;3.80;;
3733;SDS011;1882;52.256;8.874;2023-11-19T00:50:36;3.97;;;3.50;;
3733;SDS011;1882;52.256;8.874;2023-11-19T00:53:06;4.00;;;3.67;;
3733;SDS011;1882;52.256;8.874;2023-11-19T00:55:35;4.10;;;3.70;;
3733;SDS011;1882;52.256;8.874;2023-11-19T00:58:12;3.70;;;3.40;;
3733;SDS011;1882;52.256;8.874;2023-11-19T01:00:43;3.80;;;3.40;;
3733;SDS011;1882;52.256;8.874;2023-11-19T01:03:11;3.93;;;3.00;;
3733;SDS011;1882;52.256;8.874;2023-11-19T01:05:38;3.50;;;2.80;;
3733;SDS011;1882;52.256;8.874;2023-11-19T01:08:14;3.10;;;2.80;;
3733;SDS011;1882;52.256;8.874;2023-11-19T01:10:42;2.93;;;2.73;;
3733;SDS011;1882;52.256;8.874;2023-11-19T01:13:09;3.00;;;2.80;;
3733;SDS011;1882;52.256;8.874;2023-11-19T01:15:43;3.20;;;2.60;;
3733;SDS011;1882;52.256;8.874;2023-11-19T01:18:09;2.57;;;2.37;;
3733;SDS011;1882;52.256;8.874;2023-11-19T01:20:37;2.87;;;2.50;;
3733;SDS011;1882;52.256;8.874;2023-11-19T01:23:07;2.93;;;2.73;;
3733;SDS011;1882;52.256;8.874;2023-11-19T01:25:34;2.63;;;2.47;;
3733;SDS011;1882;52.256;8.874;2023-11-19T01:28:05;3.00;;;2.70;;
3733;SDS011;1882;52.256;8.874;2023-11-19T01:30:35;2.90;;;2.70;;
3733;SDS011;1882;52.256;8.874;2023-11-19T01:33:05;3.70;;;2.63;;
3733;SDS011;1882;52.256;8.874;2023-11-19T01:35:37;2.63;;;2.43;;
3733;SDS011;1882;52.256;8.874;2023-11-19T01:38:06;2.80;;;2.60;;
3733;SDS011;1882;52.256;8.874;2023-11-19T01:40:35;3.33;;;3.00;;
3733;SDS011;1882;52.256;8.874;2023-11-19T01:43:05;2.70;;;2.50;;
3733;SDS011;1882;52.256;8.874;2023-11-19T01:45:32;2.77;;;2.57;;
3733;SDS011;1882;52.256;8.874;2023-11-19T01:48:06;2.90;;;2.70;;
3733;SDS011;1882;52.256;8.874;2023-11-19T01:50:36;2.70;;;2.50;;
3733;SDS011;1882;52.256;8.874;2023-11-19T01:53:06;3.60;;;2.73;;
3733;SDS011;1882;52.256;8.874;2023-11-19T01:55:39;3.40;;;3.10;;
3733;SDS011;1882;52.256;8.874;2023-11-19T01:58:07;3.37;;;3.13;;
3733;SDS011;1882;52.256;8.874;2023-11-19T02:00:34;3.43;;;2.80;;
3733;SDS011;1882;52.256;8.874;2023-11-19T02:03:07;3.60;;;3.30;;
3733;SDS011;1882;52.256;8.874;2023-11-19T02:05:37;3.10;;;2.90;;
3733;SDS011;1882;52.256;8.874;2023-11-19T02:08:05;3.63;;;3.33;;
3733;SDS011;1882;52.256;8.874;2023-11-19T02:10:41;6.20;;;3.80;;
3733;SDS011;1882;52.256;8.874;2023-11-19T02:13:07;4.10;;;3.70;;
3733;SDS011;1882;52.256;8.874;2023-11-19T02:15:37;6.83;;;4.73;;
3733;SDS011;1882;52.256;8.874;2023-11-19T02:20:59;6.60;;;4.87;;
3733;SDS011;1882;52.256;8.874;2023-11-19T02:23:26;8.60;;;5.50;;
3733;SDS011;1882;52.256;8.874;2023-11-19T02:26:00;6.17;;;5.20;;
3733;SDS011;1882;52.256;8.874;2023-11-19T02:28:29;6.87;;;5.30;;
3733;SDS011;1882;52.256;8.874;2023-11-19T02:30:56;7.93;;;6.07;;
3733;SDS011;1882;52.256;8.874;2023-11-19T02:33:23;7.97;;;5.90;;
3733;SDS011;1882;52.256;8.874;2023-11-19T02:35:57;8.43;;;6.20;;
3733;SDS011;1882;52.256;8.874;2023-11-19T02:38:24;6.97;;;5.90;;
3733;SDS011;1882;52.256;8.874;2023-11-19T02:40:51;7.93;;;6.37;;
3733;SDS011;1882;52.256;8.874;2023-11-19T02:43:17;8.37;;;6.37;;
3733;SDS011;1882;52.256;8.874;2023-11-19T02:45:49;8.20;;;6.00;;
3733;SDS011;1882;52.256;8.874;2023-11-19T02:48:17;6.73;;;5.83;;
3733;SDS011;1882;52.256;8.874;2023-11-19T02:50:43;7.50;;;5.80;;
3733;SDS011;1882;52.256;8.874;2023-11-19T02:53:10;7.17;;;5.33;;
3733;SDS011;1882;52.256;8.874;2023-11-19T02:55:37;7.37;;;5.93;;
3733;SDS011;1882;52.256;8.874;2023-11-19T02:58:16;7.70;;;5.90;;
3733;SDS011;1882;52.256;8.874;2023-11-19T03:00:46;8.10;;;6.30;;
3733;SDS011;1882;52.256;8.874;2023-11-19T03:03:39;9.27;;;6.67;;
3733;SDS011;1882;52.256;8.874;2023-11-19T03:06:07;9.80;;;6.87;;
3733;SDS011;1882;52.256;8.874;2023-11-19T03:08:35;11.43;;;6.87;;
3733;SDS011;1882;52.256;8.874;2023-11-19T03:11:02;9.90;;;7.00;;
3733;SDS011;1882;52.256;8.874;2023-11-19T03:13:31;8.50;;;6.20;;
3733;SDS011;1882;52.256;8.874;2023-11-19T03:15:58;9.47;;;7.30;;
3733;SDS011;1882;52.256;8.874;2023-11-19T03:18:24;10.27;;;7.70;;
3733;SDS011;1882;52.256;8.874;2023-11-19T03:20:51;9.20;;;7.00;;
3733;SDS011;1882;52.256;8.874;2023-11-19T03:23:18;10.50;;;7.23;;
3733;SDS011;1882;52.256;8.874;2023-11-19T03:25:48;14.63;;;7.97;;
3733;SDS011;1882;52.256;8.874;2023-11-19T03:28:15;12.60;;;8.17;;
3733;SDS011;1882;52.256;8.874;2023-11-19T03:30:42;14.93;;;8.90;;
3733;SDS011;1882;52.256;8.874;2023-11-19T03:33:08;13.00;;;8.70;;
3733;SDS011;1882;52.256;8.874;2023-11-19T03:35:35;17.00;;;9.13;;
3733;SDS011;1882;52.256;8.874;2023-11-19T03:40:54;14.27;;;9.00;;
3733;SDS011;1882;52.256;8.874;2023-11-19T03:43:20;18.93;;;11.00;;
3733;SDS011;1882;52.256;8.874;2023-11-19T03:45:47;16.63;;;9.70;;
3733;SDS011;1882;52.256;8.874;2023-11-19T03:48:14;16.87;;;10.10;;
3733;SDS011;1882;52.256;8.874;2023-11-19T03:51:29;17.23;;;10.50;;
3733;SDS011;1882;52.256;8.874;2023-11-19T03:53:55;19.77;;;11.30;;
3733;SDS011;1882;52.256;8.874;2023-11-19T03:56:26;19.07;;;11.00;;
3733;SDS011;1882;52.256;8.874;2023-11-19T03:59:04;21.07;;;11.20;;
3733;SDS011;1882;52.256;8.874;2023-11-19T04:01:30;18.17;;;11.67;;
3733;SDS011;1882;52.256;8.874;2023-11-19T04:03:57;23.10;;;12.13;;
3733;SDS011;1882;52.256;8.874;2023-11-19T04:06:33;20.33;;;11.93;;
3733;SDS011;1882;52.256;8.874;2023-11-19T04:09:00;20.30;;;12.03;;
3733;SDS011;1882;52.256;8.874;2023-11-19T04:11:27;21.37;;;12.70;;
3733;SDS011;1882;52.256;8.874;2023-11-19T04:14:03;26.47;;;14.30;;
3733;SDS011;1882;52.256;8.874;2023-11-19T04:16:29;26.93;;;14.13;;
3733;SDS011;1882;52.256;8.874;2023-11-19T04:18:58;28.20;;;13.63;;
3733;SDS011;1882;52.256;8.874;2023-11-19T04:21:28;23.97;;;13.80;;
3733;SDS011;1882;52.256;8.874;2023-11-19T04:23:58;26.80;;;14.70;;
3733;SDS011;1882;52.256;8.874;2023-11-19T04:26:24;21.40;;;13.70;;
3733;SDS011;1882;52.256;8.874;2023-11-19T04:29:00;25.47;;;14.40;;
3733;SDS011;1882;52.256;8.874;2023-11-19T04:31:30;25.43;;;14.80;;
3733;SDS011;1882;52.256;8.874;2023-11-19T04:33:58;23.70;;;15.50;;
3733;SDS011;1882;52.256;8.874;2023-11-19T04:37:02;27.90;;;15.17;;
3733;SDS011;1882;52.256;8.874;2023-11-19T04:39:35;28.77;;;16.17;;
3733;SDS011;1882;52.256;8.874;2023-11-19T04:42:21;23.63;;;14.40;;
3733;SDS011;1882;52.256;8.874;2023-11-19T04:44:49;32.53;;;14.50;;
3733;SDS011;1882;52.256;8.874;2023-11-19T04:47:15;40.07;;;15.80;;
3733;SDS011;1882;52.256;8.874;2023-11-19T04:49:53;28.70;;;15.27;;
3733;SDS011;1882;52.256;8.874;2023-11-19T04:52:19;25.70;;;14.13;;
3733;SDS011;1882;52.256;8.874;2023-11-19T04:54:46;23.20;;;14.70;;
3733;SDS011;1882;52.256;8.874;2023-11-19T04:57:32;25.83;;;13.93;;
3733;SDS011;1882;52.256;8.874;2023-11-19T04:59:59;26.90;;;14.00;;
3733;SDS011;1882;52.256;8.874;2023-11-19T05:02:37;26.67;;;14.00;;
3733;SDS011;1882;52.256;8.874;2023-11-19T05:05:04;26.23;;;13.90;;
3733;SDS011;1882;52.256;8.874;2023-11-19T05:07:31;23.80;;;12.90;;
3733;SDS011;1882;52.256;8.874;2023-11-19T05:10:04;29.67;;;12.43;;
3733;SDS011;1882;52.256;8.874;2023-11-19T05:12:32;23.67;;;13.47;;
3733;SDS011;1882;52.256;8.874;2023-11-19T05:14:59;22.30;;;13.00;;
3733;SDS011;1882;52.256;8.874;2023-11-19T05:17:28;25.67;;;13.33;;
3733;SDS011;1882;52.256;8.874;2023-11-19T05:19:55;23.10;;;12.47;;
3733;SDS011;1882;52.256;8.874;2023-11-19T05:22:22;21.67;;;12.40;;
3733;SDS011;1882;52.256;8.874;2023-11-19T05:24:49;23.33;;;12.60;;
3733;SDS011;1882;52.256;8.874;2023-11-19T05:27:16;24.63;;;12.50;;
3733;SDS011;1882;52.256;8.874;2023-11-19T05:29:46;19.40;;;11.07;;
3733;SDS011;1882;52.256;8.874;2023-11-19T05:32:15;23.90;;;12.10;;
3733;SDS011;1882;52.256;8.874;2023-11-19T05:34:44;28.10;;;12.10;;
3733;SDS011;1882;52.256;8.874;2023-11-19T05:37:14;19.60;;;11.50;;
3733;SDS011;1882;52.256;8.874;2023-11-19T05:39:46;25.57;;;11.97;;
3733;SDS011;1882;52.256;8.874;2023-11-19T05:42:16;29.27;;;12.17;;
3733;SDS011;1882;52.256;8.874;2023-11-19T05:44:46;24.13;;;11.40;;
3733;SDS011;1882;52.256;8.874;2023-11-19T05:47:16;23.47;;;13.03;;
3733;SDS011;1882;52.256;8.874;2023-11-19T05:49:46;26.30;;;10.67;;
3733;SDS011;1882;52.256;8.874;2023-11-19T05:52:16;20.97;;;10.23;;
3733;SDS011;1882;52.256;8.874;2023-11-19T05:54:47;24.43;;;10.90;;
3733;SDS011;1882;52.256;8.874;2023-11-19T05:57:18;18.13;;;9.70;;
3733;SDS011;1882;52.256;8.874;2023-11-19T05:59:57;21.73;;;11.07;;
3733;SDS011;1882;52.256;8.874;2023-11-19T06:02:25;19.77;;;8.63;;
3733;SDS011;1882;52.256;8.874;2023-11-19T06:04:53;41.30;;;9.73;;
3733;SDS011;1882;52.256;8.874;2023-11-19T06:07:20;33.03;;;8.17;;
3733;SDS011;1882;52.256;8.874;2023-11-19T06:09:49;23.10;;;7.07;;
3733;SDS011;1882;52.256;8.874;2023-11-19T06:12:16;18.03;;;7.93;;
3733;SDS011;1882;52.256;8.874;2023-11-19T06:14:48;22.20;;;7.37;;
3733;SDS011;1882;52.256;8.874;2023-11-19T06:24:09;28.33;;;6.93;;
3733;SDS011;1882;52.256;8.874;2023-11-19T06:27:48;24.87;;;6.50;;
3733;SDS011;1882;52.256;8.874;2023-11-19T06:31:00;19.63;;;5.77;;
3733;SDS011;1882;52.256;8.874;2023-11-19T06:33:34;27.73;;;6.00;;
3733;SDS011;1882;52.256;8.874;2023-11-19T06:36:15;29.27;;;5.63;;
3733;SDS011;1882;52.256;8.874;2023-11-19T06:39:32;20.20;;;5.40;;
3733;SDS011;1882;52.256;8.874;2023-11-19T06:42:19;22.87;;;5.03;;
3733;SDS011;1882;52.256;8.874;2023-11-19T06:45:02;23.20;;;6.17;;
3733;SDS011;1882;52.256;8.874;2023-11-19T06:48:46;28.90;;;5.70;;
3733;SDS011;1882;52.256;8.874;2023-11-19T06:54:27;32.93;;;6.07;;
3733;SDS011;1882;52.256;8.874;2023-11-19T06:57:17;25.43;;;5.90;;
3733;SDS011;1882;52.256;8.874;2023-11-19T07:03:29;21.23;;;5.17;;
3733;SDS011;1882;52.256;8.874;2023-11-19T07:06:33;32.20;;;5.80;;
3733;SDS011;1882;52.256;8.874;2023-11-19T07:12:45;28.53;;;6.43;;
3733;SDS011;1882;52.256;8.874;2023-11-19T07:15:13;29.23;;;5.97;;
3733;SDS011;1882;52.256;8.874;2023-11-19T07:18:36;26.83;;;6.13;;
3733;SDS011;1882;52.256;8.874;2023-11-19T07:21:04;28.70;;;5.73;;
3733;SDS011;1882;52.256;8.874;2023-11-19T07:38:11;24.47;;;5.57;;
3733;SDS011;1882;52.256;8.874;2023-11-19T07:44:58;31.27;;;7.27;;
3733;SDS011;1882;52.256;8.874;2023-11-19T07:47:45;30.93;;;5.47;;
3733;SDS011;1882;52.256;8.874;2023-11-19T07:53:24;36.17;;;6.83;;
3733;SDS011;1882;52.256;8.874;2023-11-19T07:58:56;32.23;;;6.87;;
3733;SDS011;1882;52.256;8.874;2023-11-19T08:08:10;31.50;;;6.40;;
3733;SDS011;1882;52.256;8.874;2023-11-19T08:10:36;24.80;;;6.50;;
3733;SDS011;1882;52.256;8.874;2023-11-19T08:13:06;32.13;;;6.10;;
3733;SDS011;1882;52.256;8.874;2023-11-19T08:15:39;25.10;;;6.00;;
3733;SDS011;1882;52.256;8.874;2023-11-19T08:21:02;40.77;;;6.83;;
3733;SDS011;1882;52.256;8.874;2023-11-19T08:23:35;36.40;;;7.53;;
3733;SDS011;1882;52.256;8.874;2023-11-19T08:26:14;42.23;;;6.40;;
3733;SDS011;1882;52.256;8.874;2023-11-19T08:28:58;34.17;;;6.23;;
3733;SDS011;1882;52.256;8.874;2023-11-19T08:31:25;31.47;;;6.10;;
3733;SDS011;1882;52.256;8.874;2023-11-19T08:36:32;29.60;;;6.00;;
3733;SDS011;1882;52.256;8.874;2023-11-19T08:38:59;33.67;;;6.03;;
3733;SDS011;1882;52.256;8.874;2023-11-19T08:44:22;29.80;;;5.50;;
3733;SDS011;1882;52.256;8.874;2023-11-19T08:46:51;36.63;;;5.83;;
3733;SDS011;1882;52.256;8.874;2023-11-19T08:49:27;32.27;;;6.40;;
3733;SDS011;1882;52.256;8.874;2023-11-19T08:51:53;26.80;;;5.90;;
3733;SDS011;1882;52.256;8.874;2023-11-19T08:54:39;27.93;;;6.33;;
3733;SDS011;1882;52.256;8.874;2023-11-19T08:57:14;37.53;;;6.63;;
3733;SDS011;1882;52.256;8.874;2023-11-19T09:08:49;23.70;;;6.27;;
3733;SDS011;1882;52.256;8.874;2023-11-19T09:21:33;31.10;;;4.90;;
3733;SDS011;1882;52.256;8.874;2023-11-19T09:24:03;30.43;;;6.17;;
3733;SDS011;1882;52.256;8.874;2023-11-19T09:26:29;28.13;;;5.43;;
3733;SDS011;1882;52.256;8.874;2023-11-19T09:29:00;26.07;;;5.50;;
3733;SDS011;1882;52.256;8.874;2023-11-19T09:31:27;27.83;;;5.70;;
3733;SDS011;1882;52.256;8.874;2023-11-19T09:33:54;26.60;;;5.37;;
3733;SDS011;1882;52.256;8.874;2023-11-19T09:36:27;26.63;;;5.80;;
3733;SDS011;1882;52.256;8.874;2023-11-19T09:38:57;31.10;;;5.73;;
3733;SDS011;1882;52.256;8.874;2023-11-19T09:41:26;31.20;;;5.70;;
3733;SDS011;1882;52.256;8.874;2023-11-19T09:43:57;24.20;;;5.83;;
3733;SDS011;1882;52.256;8.874;2023-11-19T09:46:27;31.37;;;5.63;;
3733;SDS011;1882;52.256;8.874;2023-11-19T09:48:56;31.47;;;6.47;;
3733;SDS011;1882;52.256;8.874;2023-11-19T09:51:28;29.03;;;5.57;;
3733;SDS011;1882;52.256;8.874;2023-11-19T09:53:57;19.47;;;6.20;;
3733;SDS011;1882;52.256;8.874;2023-11-19T09:56:24;30.67;;;5.90;;
3733;SDS011;1882;52.256;8.874;2023-11-19T09:58:54;30.50;;;5.93;;
3733;SDS011;1882;52.256;8.874;2023-11-19T10:01:21;33.13;;;6.07;;
3733;SDS011;1882;52.256;8.874;2023-11-19T10:03:58;24.07;;;5.40;;
3733;SDS011;1882;52.256;8.874;2023-11-19T10:06:25;34.10;;;6.10;;
3733;SDS011;1882;52.256;8.874;2023-11-19T10:08:59;22.03;;;6.50;;
3733;SDS011;1882;52.256;8.874;2023-11-19T10:11:26;25.40;;;7.37;;
3733;SDS011;1882;52.256;8.874;2023-11-19T10:13:58;40.43;;;8.17;;
3733;SDS011;1882;52.256;8.874;2023-11-19T10:16:29;28.43;;;5.83;;
3733;SDS011;1882;52.256;8.874;2023-11-19T10:19:00;30.87;;;6.50;;
3733;SDS011;1882;52.256;8.874;2023-11-19T10:21:26;31.57;;;7.10;;
3733;SDS011;1882;52.256;8.874;2023-11-19T10:24:03;37.03;;;6.53;;
3733;SDS011;1882;52.256;8.874;2023-11-19T10:26:30;32.63;;;6.00;;
3733;SDS011;1882;52.256;8.874;2023-11-19T10:28:57;36.03;;;7.13;;
3733;SDS011;1882;52.256;8.874;2023-11-19T10:34:43;24.17;;;5.90;;
3733;SDS011;1882;52.256;8.874;2023-11-19T10:37:29;32.87;;;7.00;;
3733;SDS011;1882;52.256;8.874;2023-11-19T10:39:58;29.70;;;6.63;;
3733;SDS011;1882;52.256;8.874;2023-11-19T10:42:28;34.00;;;6.63;;
3733;SDS011;1882;52.256;8.874;2023-11-19T10:44:54;35.67;;;6.27;;
3733;SDS011;1882;52.256;8.874;2023-11-19T10:47:22;22.20;;;6.00;;
3733;SDS011;1882;52.256;8.874;2023-11-19T10:49:53;31.73;;;6.27;;
3733;SDS011;1882;52.256;8.874;2023-11-19T10:52:28;22.57;;;5.67;;
3733;SDS011;1882;52.256;8.874;2023-11-19T10:54:56;30.70;;;6.23;;
3733;SDS011;1882;52.256;8.874;2023-11-19T10:57:25;20.20;;;5.80;;
3733;SDS011;1882;52.256;8.874;2023-11-19T10:59:55;32.20;;;6.77;;
3733;SDS011;1882;52.256;8.874;2023-11-19T11:02:28;23.40;;;5.93;;
3733;SDS011;1882;52.256;8.874;2023-11-19T11:05:05;17.27;;;5.70;;
3733;SDS011;1882;52.256;8.874;2023-11-19T11:07:32;27.47;;;7.10;;
3733;SDS011;1882;52.256;8.874;2023-11-19T11:10:09;28.80;;;5.90;;
3733;SDS011;1882;52.256;8.874;2023-11-19T11:12:38;19.43;;;5.30;;
3733;SDS011;1882;52.256;8.874;2023-11-19T11:15:08;35.20;;;6.60;;
3733;SDS011;1882;52.256;8.874;2023-11-19T11:17:45;44.37;;;6.53;;
3733;SDS011;1882;52.256;8.874;2023-11-19T11:20:12;34.73;;;6.83;;
3733;SDS011;1882;52.256;8.874;2023-11-19T11:22:59;33.27;;;6.37;;
3733;SDS011;1882;52.256;8.874;2023-11-19T11:28:25;33.13;;;6.43;;
3733;SDS011;1882;52.256;8.874;2023-11-19T11:31:13;31.13;;;5.77;;
3733;SDS011;1882;52.256;8.874;2023-11-19T11:36:30;35.47;;;6.43;;
3733;SDS011;1882;52.256;8.874;2023-11-19T11:38:58;36.90;;;6.43;;
3733;SDS011;1882;52.256;8.874;2023-11-19T11:41:34;37.20;;;6.33;;
3733;SDS011;1882;52.256;8.874;2023-11-19T11:44:01;34.27;;;6.40;;
3733;SDS011;1882;52.256;8.874;2023-11-19T11:57:09;25.47;;;5.77;;
3733;SDS011;1882;52.256;8.874;2023-11-19T11:59:48;38.10;;;5.70;;
3733;SDS011;1882;52.256;8.874;2023-11-19T12:02:25;31.37;;;5.43;;
3733;SDS011;1882;52.256;8.874;2023-11-19T12:20:01;30.40;;;6.20;;
3733;SDS011;1882;52.256;8.874;2023-11-19T12:26:37;35.87;;;6.33;;
3733;SDS011;1882;52.256;8.874;2023-11-19T12:29:19;27.33;;;6.13;;
3733;SDS011;1882;52.256;8.874;2023-11-19T12:39:05;38.33;;;7.87;;
3733;SDS011;1882;52.256;8.874;2023-11-19T12:47:23;37.63;;;7.00;;
3733;SDS011;1882;52.256;8.874;2023-11-19T12:50:18;34.33;;;6.73;;
3733;SDS011;1882;52.256;8.874;2023-11-19T12:56:08;31.80;;;5.63;;
3733;SDS011;1882;52.256;8.874;2023-11-19T12:58:39;32.53;;;7.20;;
3733;SDS011;1882;52.256;8.874;2023-11-19T13:01:19;28.77;;;6.50;;
3733;SDS011;1882;52.256;8.874;2023-11-19T13:03:59;34.07;;;6.43;;
3733;SDS011;1882;52.256;8.874;2023-11-19T13:06:27;41.23;;;5.97;;
3733;SDS011;1882;52.256;8.874;2023-11-19T13:08:56;39.77;;;6.90;;
3733;SDS011;1882;52.256;8.874;2023-11-19T13:11:33;35.43;;;6.43;;
3733;SDS011;1882;52.256;8.874;2023-11-19T13:14:05;31.40;;;6.33;;
3733;SDS011;1882;52.256;8.874;2023-11-19T13:16:35;28.60;;;6.63;;
3733;SDS011;1882;52.256;8.874;2023-11-19T13:19:03;24.43;;;6.13;;
3733;SDS011;1882;52.256;8.874;2023-11-19T13:21:30;31.60;;;6.27;;
3733;SDS011;1882;52.256;8.874;2023-11-19T13:23:57;34.00;;;5.83;;
3733;SDS011;1882;52.256;8.874;2023-11-19T13:26:30;25.53;;;5.90;;
3733;SDS011;1882;52.256;8.874;2023-11-19T13:28:59;49.00;;;8.33;;
3733;SDS011;1882;52.256;8.874;2023-11-19T13:31:26;39.83;;;7.17;;
3733;SDS011;1882;52.256;8.874;2023-11-19T13:34:01;35.43;;;8.83;;
3733;SDS011;1882;52.256;8.874;2023-11-19T13:36:27;25.67;;;7.60;;
3733;SDS011;1882;52.256;8.874;2023-11-19T13:38:54;26.20;;;6.23;;
3733;SDS011;1882;52.256;8.874;2023-11-19T13:41:34;21.67;;;6.50;;
3733;SDS011;1882;52.256;8.874;2023-11-19T13:44:01;30.93;;;6.10;;
3733;SDS011;1882;52.256;8.874;2023-11-19T13:46:28;24.90;;;5.90;;
3733;SDS011;1882;52.256;8.874;2023-11-19T13:51:49;25.90;;;6.50;;
3733;SDS011;1882;52.256;8.874;2023-11-19T14:02:47;26.77;;;5.93;;
3733;SDS011;1882;52.256;8.874;2023-11-19T14:12:35;20.17;;;5.23;;
3733;SDS011;1882;52.256;8.874;2023-11-19T14:15:06;29.37;;;6.00;;
3733;SDS011;1882;52.256;8.874;2023-11-19T14:17:36;30.90;;;6.67;;
3733;SDS011;1882;52.256;8.874;2023-11-19T14:20:11;27.90;;;5.50;;
3733;SDS011;1882;52.256;8.874;2023-11-19T14:23:10;36.53;;;5.30;;
3733;SDS011;1882;52.256;8.874;2023-11-19T14:25:37;28.47;;;5.53;;
3733;SDS011;1882;52.256;8.874;2023-11-19T14:28:05;22.17;;;5.30;;
3733;SDS011;1882;52.256;8.874;2023-11-19T14:33:26;27.63;;;6.03;;
3733;SDS011;1882;52.256;8.874;2023-11-19T14:35:53;26.00;;;5.30;;
3733;SDS011;1882;52.256;8.874;2023-11-19T14:38:20;23.50;;;4.80;;
3733;SDS011;1882;52.256;8.874;2023-11-19T14:40:47;27.97;;;5.07;;
3733;SDS011;1882;52.256;8.874;2023-11-19T14:43:14;21.53;;;5.67;;
3733;SDS011;1882;52.256;8.874;2023-11-19T14:45:48;32.07;;;5.13;;
3733;SDS011;1882;52.256;8.874;2023-11-19T14:48:16;21.73;;;4.40;;
3733;SDS011;1882;52.256;8.874;2023-11-19T14:50:54;23.30;;;4.90;;
3733;SDS011;1882;52.256;8.874;2023-11-19T14:56:29;22.07;;;5.33;;
3733;SDS011;1882;52.256;8.874;2023-11-19T14:59:06;30.83;;;6.00;;
3733;SDS011;1882;52.256;8.874;2023-11-19T15:01:41;19.30;;;4.73;;
3733;SDS011;1882;52.256;8.874;2023-11-19T15:04:10;20.27;;;4.90;;
3733;SDS011;1882;52.256;8.874;2023-11-19T15:06:44;22.87;;;5.53;;
3733;SDS011;1882;52.256;8.874;2023-11-19T15:09:22;23.33;;;5.30;;
3733;SDS011;1882;52.256;8.874;2023-11-19T15:11:48;24.37;;;5.90;;
3733;SDS011;1882;52.256;8.874;2023-11-19T15:14:15;21.23;;;4.83;;
3733;SDS011;1882;52.256;8.874;2023-11-19T15:16:45;20.13;;;4.90;;
3733;SDS011;1882;52.256;8.874;2023-11-19T15:19:13;19.80;;;5.07;;
3733;SDS011;1882;52.256;8.874;2023-11-19T15:21:41;27.90;;;5.03;;
3733;SDS011;1882;52.256;8.874;2023-11-19T15:24:08;28.03;;;5.83;;
3733;SDS011;1882;52.256;8.874;2023-11-19T15:26:35;33.20;;;5.37;;
3733;SDS011;1882;52.256;8.874;2023-11-19T15:29:14;31.47;;;5.57;;
3733;SDS011;1882;52.256;8.874;2023-11-19T15:31:40;24.20;;;5.17;;
3733;SDS011;1882;52.256;8.874;2023-11-19T15:34:07;24.53;;;5.30;;
3733;SDS011;1882;52.256;8.874;2023-11-19T15:36:34;17.30;;;4.50;;
3733;SDS011;1882;52.256;8.874;2023-11-19T15:39:05;28.80;;;7.10;;
3733;SDS011;1882;52.256;8.874;2023-11-19T15:41:32;19.90;;;5.27;;
3733;SDS011;1882;52.256;8.874;2023-11-19T15:43:59;21.13;;;5.33;;
3733;SDS011;1882;52.256;8.874;2023-11-19T15:46:26;32.17;;;5.07;;
3733;SDS011;1882;52.256;8.874;2023-11-19T15:49:03;20.33;;;4.90;;
3733;SDS011;1882;52.256;8.874;2023-11-19T15:51:30;32.77;;;7.80;;
3733;SDS011;1882;52.256;8.874;2023-11-19T15:56:52;23.30;;;7.47;;
3733;SDS011;1882;52.256;8.874;2023-11-19T15:59:19;24.87;;;5.37;;
3733;SDS011;1882;52.256;8.874;2023-11-19T16:01:47;23.17;;;5.60;;
3733;SDS011;1882;52.256;8.874;2023-11-19T16:04:17;24.93;;;5.20;;
3733;SDS011;1882;52.256;8.874;2023-11-19T16:06:47;21.50;;;4.80;;
3733;SDS011;1882;52.256;8.874;2023-11-19T16:09:14;21.93;;;7.10;;
3733;SDS011;1882;52.256;8.874;2023-11-19T16:11:45;25.17;;;5.57;;
3733;SDS011;1882;52.256;8.874;2023-11-19T16:14:22;22.27;;;5.40;;
3733;SDS011;1882;52.256;8.874;2023-11-19T16:16:50;18.90;;;4.53;;
3733;SDS011;1882;52.256;8.874;2023-11-19T16:19:21;20.23;;;4.80;;
3733;SDS011;1882;52.256;8.874;2023-11-19T16:21:49;21.13;;;4.77;;
3733;SDS011;1882;52.256;8.874;2023-11-19T16:24:16;18.40;;;4.60;;
3733;SDS011;1882;52.256;8.874;2023-11-19T16:26:42;18.80;;;4.53;;
3733;SDS011;1882;52.256;8.874;2023-11-19T16:32:05;20.20;;;5.40;;
3733;SDS011;1882;52.256;8.874;2023-11-19T16:34:33;15.33;;;4.87;;
3733;SDS011;1882;52.256;8.874;2023-11-19T16:37:09;22.87;;;4.93;;
3733;SDS011;1882;52.256;8.874;2023-11-19T16:39:54;18.27;;;5.10;;
3733;SDS011;1882;52.256;8.874;2023-11-19T16:42:21;20.30;;;4.70;;
3733;SDS011;1882;52.256;8.874;2023-11-19T16:44:51;24.17;;;5.10;;
3733;SDS011;1882;52.256;8.874;2023-11-19T16:47:21;27.20;;;6.83;;
3733;SDS011;1882;52.256;8.874;2023-11-19T16:49:51;16.73;;;5.03;;
3733;SDS011;1882;52.256;8.874;2023-11-19T16:52:20;17.40;;;4.27;;
3733;SDS011;1882;52.256;8.874;2023-11-19T16:54:57;22.63;;;4.40;;
3733;SDS011;1882;52.256;8.874;2023-11-19T16:57:24;18.10;;;5.30;;
3733;SDS011;1882;52.256;8.874;2023-11-19T16:59:53;18.77;;;4.77;;
3733;SDS011;1882;52.256;8.874;2023-11-19T17:02:25;16.23;;;4.30;;
3733;SDS011;1882;52.256;8.874;2023-11-19T17:04:52;19.00;;;5.17;;
3733;SDS011;1882;52.256;8.874;2023-11-19T17:07:19;19.97;;;5.80;;
3733;SDS011;1882;52.256;8.874;2023-11-19T17:09:46;13.27;;;4.00;;
3733;SDS011;1882;52.256;8.874;2023-11-19T17:12:13;17.63;;;4.80;;
3733;SDS011;1882;52.256;8.874;2023-11-19T17:17:32;12.33;;;4.63;;
3733;SDS011;1882;52.256;8.874;2023-11-19T17:20:03;12.30;;;4.70;;
3733;SDS011;1882;52.256;8.874;2023-11-19T17:22:36;18.33;;;4.47;;
3733;SDS011;1882;52.256;8.874;2023-11-19T17:25:05;17.93;;;4.53;;
3733;SDS011;1882;52.256;8.874;2023-11-19T17:27:32;16.17;;;4.77;;
3733;SDS011;1882;52.256;8.874;2023-11-19T17:30:08;18.93;;;5.13;;
3733;SDS011;1882;52.256;8.874;2023-11-19T17:32:37;22.13;;;5.90;;
3733;SDS011;1882;52.256;8.874;2023-11-19T17:35:05;17.20;;;5.03;;
3733;SDS011;1882;52.256;8.874;2023-11-19T17:37:37;14.97;;;5.07;;
3733;SDS011;1882;52.256;8.874;2023-11-19T17:40:04;23.20;;;5.37;;
3733;SDS011;1882;52.256;8.874;2023-11-19T17:42:32;28.73;;;5.03;;
3733;SDS011;1882;52.256;8.874;2023-11-19T17:44:59;19.57;;;5.37;;
3733;SDS011;1882;52.256;8.874;2023-11-19T17:47:30;15.80;;;5.40;;
3733;SDS011;1882;52.256;8.874;2023-11-19T17:49:57;20.40;;;6.00;;
3733;SDS011;1882;52.256;8.874;2023-11-19T17:52:23;24.03;;;5.77;;
3733;SDS011;1882;52.256;8.874;2023-11-19T17:54:50;22.63;;;5.67;;
3733;SDS011;1882;52.256;8.874;2023-11-19T17:57:17;16.30;;;5.10;;
3733;SDS011;1882;52.256;8.874;2023-11-19T17:59:47;13.17;;;5.17;;
3733;SDS011;1882;52.256;8.874;2023-11-19T18:02:16;26.00;;;5.50;;
3733;SDS011;1882;52.256;8.874;2023-11-19T18:04:46;23.30;;;5.20;;
3733;SDS011;1882;52.256;8.874;2023-11-19T18:07:20;28.47;;;5.40;;
3733;SDS011;1882;52.256;8.874;2023-11-19T18:09:49;21.30;;;5.37;;
3733;SDS011;1882;52.256;8.874;2023-11-19T18:12:16;18.33;;;4.40;;
3733;SDS011;1882;52.256;8.874;2023-11-19T18:14:49;22.03;;;6.23;;
3733;SDS011;1882;52.256;8.874;2023-11-19T18:17:18;25.53;;;5.60;;
3733;SDS011;1882;52.256;8.874;2023-11-19T18:19:45;22.13;;;5.50;;